Moon, PA

10:22 AM EST on February 11, 2016 (GMT -0500)
Moon Township | | Change Station
CLOSE
Current Station
Personal Weather Station
Location: Moon Township, PA
Elevation: 1073 ft
Nearby Weather Stations

Elev 1073 ft 40.52 °N, 80.20 °W | Updated 12 minutes ago

Scattered Clouds
Scattered Clouds
13.8 °F
Feels Like 14 °F
N
0.0
Wind Variable Wind from WNW

Today
High -- | Low -- °F
--% Chance of Precip.
Yesterday
High -- | Low -- °F
Precip. -- in
Pressure 30.19 in
Visibility 10.0 miles
Clouds Scattered Clouds 1600 ft
Scattered Clouds 5000 ft
Windchill 14 °F
Dew Point 5 °F
Humidity 67%
Rainfall 0.00 in
Snow Depth Not available.
7:20 AM 5:50 PM
Waxing Crescent, 12% visible
METAR KPIT 111451Z 27014G22KT 10SM SCT016 SCT050 M10/M17 A3010 RMK AO2 SLP223 60000 T11001167 51026
Pressure 30.19 in
Visibility 10.0 miles
Clouds Scattered Clouds 1600 ft
Scattered Clouds 5000 ft
Windchill 14 °F
Dew Point 5 °F
Humidity 67%
Rainfall 0.00 in
Snow Depth Not available.
7:20 AM 5:50 PM
Waxing Crescent, 12% visible
METAR KPIT 111451Z 27014G22KT 10SM SCT016 SCT050 M10/M17 A3010 RMK AO2 SLP223 60000 T11001167 51026

10-Day Weather Forecast

Almanac

Astronomy

Feb. 11, 2016 Rise Set
Actual Time
Civil Twilight
Nautical Twilight
Astronomical Twilight
Moon
Length of Visible Light
Length of Day
Tomorrow will be .
, % of the Moon is Illuminated

Today's Extremes

State Highs State Lows

Community

WunderPhotos

Upload Photos

1,892,066 photos uploaded!

WunderBlog® & News

Nearby

Air Quality

  Air Quality AQ Index Pollutant
Not available.

Snow Depth

Station Depth Elevation

Earthquake Activity

City Distance Mag. Time & Date
Minimum magnitude displayed is 2.5.

Coastal Water Temperatures

Place Temperature

Stations

Nearby Weather Stations

Station Location Temp. Windchill Dew Point Humidity Wind Precip. Elev Updated Type
                   

Watches & Warnings

There are currently no watches in effect.